sensor_id;sensor_type;location;lat;lon;timestamp;P1;durP1;ratioP1;P2;durP2;ratioP2
6955;SDS011;50345;51.136;16.886;2022-08-02T00:01:38;4.47;;;4.07;;
6955;SDS011;50345;51.136;16.886;2022-08-02T00:04:04;4.00;;;3.70;;
6955;SDS011;50345;51.136;16.886;2022-08-02T00:06:30;4.77;;;4.37;;
6955;SDS011;50345;51.136;16.886;2022-08-02T00:08:56;4.03;;;3.83;;
6955;SDS011;50345;51.136;16.886;2022-08-02T00:11:22;3.83;;;3.53;;
6955;SDS011;50345;51.136;16.886;2022-08-02T00:13:47;4.50;;;4.17;;
6955;SDS011;50345;51.136;16.886;2022-08-02T00:16:13;4.00;;;3.60;;
6955;SDS011;50345;51.136;16.886;2022-08-02T00:18:39;4.37;;;3.97;;
6955;SDS011;50345;51.136;16.886;2022-08-02T00:21:04;3.27;;;3.03;;
6955;SDS011;50345;51.136;16.886;2022-08-02T00:23:30;8.43;;;3.40;;
6955;SDS011;50345;51.136;16.886;2022-08-02T00:25:55;3.73;;;3.43;;
6955;SDS011;50345;51.136;16.886;2022-08-02T00:28:22;3.33;;;3.13;;
6955;SDS011;50345;51.136;16.886;2022-08-02T00:30:49;4.13;;;3.83;;
6955;SDS011;50345;51.136;16.886;2022-08-02T00:33:14;4.50;;;3.73;;
6955;SDS011;50345;51.136;16.886;2022-08-02T00:35:40;3.70;;;3.40;;
6955;SDS011;50345;51.136;16.886;2022-08-02T00:38:05;3.27;;;3.07;;
6955;SDS011;50345;51.136;16.886;2022-08-02T00:40:31;3.83;;;3.60;;
6955;SDS011;50345;51.136;16.886;2022-08-02T00:43:03;3.30;;;3.10;;
6955;SDS011;50345;51.136;16.886;2022-08-02T00:45:32;3.30;;;3.10;;
6955;SDS011;50345;51.136;16.886;2022-08-02T00:47:59;4.80;;;3.43;;
6955;SDS011;50345;51.136;16.886;2022-08-02T00:50:24;2.90;;;2.80;;
6955;SDS011;50345;51.136;16.886;2022-08-02T00:52:51;2.80;;;2.60;;
6955;SDS011;50345;51.136;16.886;2022-08-02T00:55:16;3.90;;;3.60;;
6955;SDS011;50345;51.136;16.886;2022-08-02T00:57:42;3.33;;;3.03;;
6955;SDS011;50345;51.136;16.886;2022-08-02T01:00:08;3.47;;;3.27;;
6955;SDS011;50345;51.136;16.886;2022-08-02T01:02:34;3.50;;;3.20;;
6955;SDS011;50345;51.136;16.886;2022-08-02T01:04:59;2.97;;;2.87;;
6955;SDS011;50345;51.136;16.886;2022-08-02T01:07:25;2.93;;;2.73;;
6955;SDS011;50345;51.136;16.886;2022-08-02T01:09:51;3.77;;;3.40;;
6955;SDS011;50345;51.136;16.886;2022-08-02T01:12:17;3.10;;;2.90;;
6955;SDS011;50345;51.136;16.886;2022-08-02T01:14:43;3.10;;;2.90;;
6955;SDS011;50345;51.136;16.886;2022-08-02T01:19:53;2.63;;;2.53;;
6955;SDS011;50345;51.136;16.886;2022-08-02T01:22:38;3.10;;;2.90;;
6955;SDS011;50345;51.136;16.886;2022-08-02T01:25:12;3.33;;;3.03;;
6955;SDS011;50345;51.136;16.886;2022-08-02T01:30:17;4.00;;;3.40;;
6955;SDS011;50345;51.136;16.886;2022-08-02T01:32:45;4.35;;;3.33;;
6955;SDS011;50345;51.136;16.886;2022-08-02T01:35:31;3.20;;;3.00;;
6955;SDS011;50345;51.136;16.886;2022-08-02T01:38:03;3.50;;;3.30;;
6955;SDS011;50345;51.136;16.886;2022-08-02T01:40:31;4.85;;;3.22;;
6955;SDS011;50345;51.136;16.886;2022-08-02T01:43:01;3.40;;;3.10;;
6955;SDS011;50345;51.136;16.886;2022-08-02T01:45:29;3.20;;;3.00;;
6955;SDS011;50345;51.136;16.886;2022-08-02T01:47:58;3.63;;;3.42;;
6955;SDS011;50345;51.136;16.886;2022-08-02T01:50:27;3.10;;;2.90;;
6955;SDS011;50345;51.136;16.886;2022-08-02T01:52:57;4.80;;;3.60;;
6955;SDS011;50345;51.136;16.886;2022-08-02T01:55:25;3.80;;;3.50;;
6955;SDS011;50345;51.136;16.886;2022-08-02T01:57:56;3.25;;;3.10;;
6955;SDS011;50345;51.136;16.886;2022-08-02T02:00:26;3.67;;;3.38;;
6955;SDS011;50345;51.136;16.886;2022-08-02T02:02:56;3.10;;;2.80;;
6955;SDS011;50345;51.136;16.886;2022-08-02T02:05:23;3.80;;;3.60;;
6955;SDS011;50345;51.136;16.886;2022-08-02T02:07:52;3.72;;;3.45;;
6955;SDS011;50345;51.136;16.886;2022-08-02T02:10:25;3.30;;;3.10;;
6955;SDS011;50345;51.136;16.886;2022-08-02T02:12:51;3.78;;;3.58;;
6955;SDS011;50345;51.136;16.886;2022-08-02T02:15:18;3.65;;;3.45;;
6955;SDS011;50345;51.136;16.886;2022-08-02T02:17:47;3.83;;;3.53;;
6955;SDS011;50345;51.136;16.886;2022-08-02T02:20:16;3.45;;;3.15;;
6955;SDS011;50345;51.136;16.886;2022-08-02T02:22:43;4.05;;;3.75;;
6955;SDS011;50345;51.136;16.886;2022-08-02T02:25:09;4.07;;;3.80;;
6955;SDS011;50345;51.136;16.886;2022-08-02T02:27:36;3.83;;;3.53;;
6955;SDS011;50345;51.136;16.886;2022-08-02T02:30:07;3.97;;;3.72;;
6955;SDS011;50345;51.136;16.886;2022-08-02T02:32:33;4.13;;;3.70;;
6955;SDS011;50345;51.136;16.886;2022-08-02T02:35:00;3.85;;;3.55;;
6955;SDS011;50345;51.136;16.886;2022-08-02T02:37:29;4.70;;;3.70;;
6955;SDS011;50345;51.136;16.886;2022-08-02T02:39:57;4.32;;;4.03;;
6955;SDS011;50345;51.136;16.886;2022-08-02T02:42:26;4.13;;;3.83;;
6955;SDS011;50345;51.136;16.886;2022-08-02T02:44:55;4.68;;;4.25;;
6955;SDS011;50345;51.136;16.886;2022-08-02T02:47:22;3.58;;;3.38;;
6955;SDS011;50345;51.136;16.886;2022-08-02T02:49:48;3.83;;;3.63;;
6955;SDS011;50345;51.136;16.886;2022-08-02T02:52:16;3.85;;;3.65;;
6955;SDS011;50345;51.136;16.886;2022-08-02T02:54:42;5.15;;;4.00;;
6955;SDS011;50345;51.136;16.886;2022-08-02T02:57:10;4.47;;;3.90;;
6955;SDS011;50345;51.136;16.886;2022-08-02T02:59:37;4.15;;;3.83;;
6955;SDS011;50345;51.136;16.886;2022-08-02T03:02:04;4.10;;;3.80;;
6955;SDS011;50345;51.136;16.886;2022-08-02T03:04:30;3.85;;;3.65;;
6955;SDS011;50345;51.136;16.886;2022-08-02T03:06:56;4.57;;;3.83;;
6955;SDS011;50345;51.136;16.886;2022-08-02T03:09:24;4.75;;;4.38;;
6955;SDS011;50345;51.136;16.886;2022-08-02T03:11:50;4.47;;;4.13;;
6955;SDS011;50345;51.136;16.886;2022-08-02T03:14:17;5.25;;;4.90;;
6955;SDS011;50345;51.136;16.886;2022-08-02T03:19:09;4.43;;;4.13;;
6955;SDS011;50345;51.136;16.886;2022-08-02T03:21:35;5.40;;;5.00;;
6955;SDS011;50345;51.136;16.886;2022-08-02T03:24:01;4.22;;;3.92;;
6955;SDS011;50345;51.136;16.886;2022-08-02T03:26:27;5.03;;;4.70;;
6955;SDS011;50345;51.136;16.886;2022-08-02T03:28:53;5.13;;;4.77;;
6955;SDS011;50345;51.136;16.886;2022-08-02T03:31:18;5.50;;;5.10;;
6955;SDS011;50345;51.136;16.886;2022-08-02T03:33:44;4.93;;;4.00;;
6955;SDS011;50345;51.136;16.886;2022-08-02T03:36:11;4.50;;;4.20;;
6955;SDS011;50345;51.136;16.886;2022-08-02T03:38:39;5.10;;;4.60;;
6955;SDS011;50345;51.136;16.886;2022-08-02T03:41:06;4.85;;;4.45;;
6955;SDS011;50345;51.136;16.886;2022-08-02T03:43:33;8.98;;;4.65;;
6955;SDS011;50345;51.136;16.886;2022-08-02T03:46:00;5.97;;;5.47;;
6955;SDS011;50345;51.136;16.886;2022-08-02T03:48:28;5.80;;;5.30;;
6955;SDS011;50345;51.136;16.886;2022-08-02T03:50:55;4.88;;;4.53;;
6955;SDS011;50345;51.136;16.886;2022-08-02T03:53:21;4.88;;;4.57;;
6955;SDS011;50345;51.136;16.886;2022-08-02T03:55:47;8.47;;;5.20;;
6955;SDS011;50345;51.136;16.886;2022-08-02T03:58:17;5.95;;;5.45;;
6955;SDS011;50345;51.136;16.886;2022-08-02T04:00:43;5.97;;;5.57;;
6955;SDS011;50345;51.136;16.886;2022-08-02T04:03:08;5.57;;;4.70;;
6955;SDS011;50345;51.136;16.886;2022-08-02T04:05:34;6.17;;;5.57;;
6955;SDS011;50345;51.136;16.886;2022-08-02T04:07:59;5.87;;;5.47;;
6955;SDS011;50345;51.136;16.886;2022-08-02T04:10:25;6.70;;;5.57;;
6955;SDS011;50345;51.136;16.886;2022-08-02T04:12:51;5.60;;;5.07;;
6955;SDS011;50345;51.136;16.886;2022-08-02T04:15:17;5.70;;;5.25;;
6955;SDS011;50345;51.136;16.886;2022-08-02T04:17:45;6.32;;;5.72;;
6955;SDS011;50345;51.136;16.886;2022-08-02T04:20:18;7.45;;;5.90;;
6955;SDS011;50345;51.136;16.886;2022-08-02T04:23:05;5.88;;;5.38;;
6955;SDS011;50345;51.136;16.886;2022-08-02T04:25:34;6.68;;;5.57;;
6955;SDS011;50345;51.136;16.886;2022-08-02T04:28:00;8.07;;;5.70;;
6955;SDS011;50345;51.136;16.886;2022-08-02T04:30:27;5.75;;;5.00;;
6955;SDS011;50345;51.136;16.886;2022-08-02T04:32:53;6.72;;;6.10;;
6955;SDS011;50345;51.136;16.886;2022-08-02T04:35:19;6.10;;;5.60;;
6955;SDS011;50345;51.136;16.886;2022-08-02T04:37:46;7.20;;;6.20;;
6955;SDS011;50345;51.136;16.886;2022-08-02T04:40:12;11.38;;;5.97;;
6955;SDS011;50345;51.136;16.886;2022-08-02T04:42:39;9.23;;;8.40;;
6955;SDS011;50345;51.136;16.886;2022-08-02T04:45:05;7.75;;;7.15;;
6955;SDS011;50345;51.136;16.886;2022-08-02T04:47:32;6.18;;;5.57;;
6955;SDS011;50345;51.136;16.886;2022-08-02T04:49:58;6.40;;;5.80;;
6955;SDS011;50345;51.136;16.886;2022-08-02T04:52:24;6.73;;;6.17;;
6955;SDS011;50345;51.136;16.886;2022-08-02T04:54:49;7.13;;;5.83;;
6955;SDS011;50345;51.136;16.886;2022-08-02T04:57:16;6.27;;;5.37;;
6955;SDS011;50345;51.136;16.886;2022-08-02T05:00:01;6.70;;;5.93;;
6955;SDS011;50345;51.136;16.886;2022-08-02T05:02:26;6.20;;;5.70;;
6955;SDS011;50345;51.136;16.886;2022-08-02T05:04:52;5.70;;;5.10;;
6955;SDS011;50345;51.136;16.886;2022-08-02T05:07:18;7.40;;;6.77;;
6955;SDS011;50345;51.136;16.886;2022-08-02T05:09:43;6.53;;;5.83;;
6955;SDS011;50345;51.136;16.886;2022-08-02T05:12:09;10.23;;;5.90;;
6955;SDS011;50345;51.136;16.886;2022-08-02T05:14:34;6.83;;;6.23;;
6955;SDS011;50345;51.136;16.886;2022-08-02T05:17:00;6.13;;;5.67;;
6955;SDS011;50345;51.136;16.886;2022-08-02T05:19:26;5.60;;;5.10;;
6955;SDS011;50345;51.136;16.886;2022-08-02T05:21:51;5.63;;;5.23;;
6955;SDS011;50345;51.136;16.886;2022-08-02T05:24:17;6.27;;;5.80;;
6955;SDS011;50345;51.136;16.886;2022-08-02T05:26:42;7.80;;;5.60;;
6955;SDS011;50345;51.136;16.886;2022-08-02T05:29:08;6.13;;;5.67;;
6955;SDS011;50345;51.136;16.886;2022-08-02T05:31:34;6.23;;;5.73;;
6955;SDS011;50345;51.136;16.886;2022-08-02T05:33:59;6.40;;;5.67;;
6955;SDS011;50345;51.136;16.886;2022-08-02T05:36:25;5.40;;;5.00;;
6955;SDS011;50345;51.136;16.886;2022-08-02T05:38:50;8.13;;;6.93;;
6955;SDS011;50345;51.136;16.886;2022-08-02T05:41:17;5.63;;;5.13;;
6955;SDS011;50345;51.136;16.886;2022-08-02T05:43:43;6.67;;;6.00;;
6955;SDS011;50345;51.136;16.886;2022-08-02T05:46:09;5.20;;;4.80;;
6955;SDS011;50345;51.136;16.886;2022-08-02T05:48:35;5.30;;;5.00;;
6955;SDS011;50345;51.136;16.886;2022-08-02T05:51:21;5.63;;;5.23;;
6955;SDS011;50345;51.136;16.886;2022-08-02T05:53:58;5.90;;;5.40;;
6955;SDS011;50345;51.136;16.886;2022-08-02T05:56:33;7.60;;;5.03;;
6955;SDS011;50345;51.136;16.886;2022-08-02T05:59:16;7.23;;;5.43;;
6955;SDS011;50345;51.136;16.886;2022-08-02T06:01:51;5.50;;;5.00;;
6955;SDS011;50345;51.136;16.886;2022-08-02T06:04:26;5.37;;;4.97;;
6955;SDS011;50345;51.136;16.886;2022-08-02T06:07:16;5.67;;;5.17;;
6955;SDS011;50345;51.136;16.886;2022-08-02T06:09:45;4.87;;;4.53;;
6955;SDS011;50345;51.136;16.886;2022-08-02T06:12:13;4.67;;;4.27;;
6955;SDS011;50345;51.136;16.886;2022-08-02T06:14:41;6.67;;;5.80;;
6955;SDS011;50345;51.136;16.886;2022-08-02T06:17:07;6.90;;;5.90;;
6955;SDS011;50345;51.136;16.886;2022-08-02T06:19:35;7.93;;;6.07;;
6955;SDS011;50345;51.136;16.886;2022-08-02T06:22:02;5.80;;;5.40;;
6955;SDS011;50345;51.136;16.886;2022-08-02T06:24:41;5.30;;;4.80;;
6955;SDS011;50345;51.136;16.886;2022-08-02T06:27:10;5.33;;;4.83;;
6955;SDS011;50345;51.136;16.886;2022-08-02T06:29:39;5.67;;;5.20;;
6955;SDS011;50345;51.136;16.886;2022-08-02T06:32:06;6.20;;;5.30;;
6955;SDS011;50345;51.136;16.886;2022-08-02T06:34:39;9.53;;;4.80;;
6955;SDS011;50345;51.136;16.886;2022-08-02T06:39:44;5.80;;;5.20;;
6955;SDS011;50345;51.136;16.886;2022-08-02T06:42:13;4.93;;;4.63;;
6955;SDS011;50345;51.136;16.886;2022-08-02T06:44:42;5.73;;;5.20;;
6955;SDS011;50345;51.136;16.886;2022-08-02T06:47:08;5.40;;;5.00;;
6955;SDS011;50345;51.136;16.886;2022-08-02T06:49:33;8.33;;;5.20;;
6955;SDS011;50345;51.136;16.886;2022-08-02T06:52:02;5.30;;;4.90;;
6955;SDS011;50345;51.136;16.886;2022-08-02T06:54:28;6.07;;;4.90;;
6955;SDS011;50345;51.136;16.886;2022-08-02T06:56:54;5.77;;;5.00;;
6955;SDS011;50345;51.136;16.886;2022-08-02T06:59:20;4.57;;;4.27;;
6955;SDS011;50345;51.136;16.886;2022-08-02T07:01:45;8.10;;;5.30;;
6955;SDS011;50345;51.136;16.886;2022-08-02T07:04:11;8.17;;;5.60;;
6955;SDS011;50345;51.136;16.886;2022-08-02T07:06:36;5.40;;;4.90;;
6955;SDS011;50345;51.136;16.886;2022-08-02T07:09:02;4.70;;;4.40;;
6955;SDS011;50345;51.136;16.886;2022-08-02T07:11:28;4.90;;;4.07;;
6955;SDS011;50345;51.136;16.886;2022-08-02T07:13:54;4.47;;;4.10;;
6955;SDS011;50345;51.136;16.886;2022-08-02T07:16:19;4.70;;;4.40;;
6955;SDS011;50345;51.136;16.886;2022-08-02T07:18:45;5.07;;;4.67;;
6955;SDS011;50345;51.136;16.886;2022-08-02T07:21:10;4.27;;;4.07;;
6955;SDS011;50345;51.136;16.886;2022-08-02T07:23:36;6.17;;;3.80;;
6955;SDS011;50345;51.136;16.886;2022-08-02T07:26:02;5.93;;;3.73;;
6955;SDS011;50345;51.136;16.886;2022-08-02T07:28:28;4.80;;;4.23;;
6955;SDS011;50345;51.136;16.886;2022-08-02T07:30:54;4.90;;;4.60;;
6955;SDS011;50345;51.136;16.886;2022-08-02T07:33:19;4.50;;;4.10;;
6955;SDS011;50345;51.136;16.886;2022-08-02T07:35:45;4.30;;;3.57;;
6955;SDS011;50345;51.136;16.886;2022-08-02T07:38:11;4.00;;;3.63;;
6955;SDS011;50345;51.136;16.886;2022-08-02T07:40:37;5.10;;;4.03;;
6955;SDS011;50345;51.136;16.886;2022-08-02T07:43:02;4.17;;;2.90;;
6955;SDS011;50345;51.136;16.886;2022-08-02T07:45:28;3.30;;;2.93;;
6955;SDS011;50345;51.136;16.886;2022-08-02T07:47:54;4.10;;;3.57;;
6955;SDS011;50345;51.136;16.886;2022-08-02T07:50:20;2.70;;;2.50;;
6955;SDS011;50345;51.136;16.886;2022-08-02T07:52:47;2.90;;;2.60;;
6955;SDS011;50345;51.136;16.886;2022-08-02T07:55:13;3.30;;;3.00;;
6955;SDS011;50345;51.136;16.886;2022-08-02T07:57:40;3.77;;;3.10;;
6955;SDS011;50345;51.136;16.886;2022-08-02T08:00:06;2.83;;;2.63;;
6955;SDS011;50345;51.136;16.886;2022-08-02T08:02:35;2.90;;;2.70;;
6955;SDS011;50345;51.136;16.886;2022-08-02T08:05:01;2.77;;;2.57;;
6955;SDS011;50345;51.136;16.886;2022-08-02T08:07:28;2.87;;;2.67;;
6955;SDS011;50345;51.136;16.886;2022-08-02T08:09:53;2.53;;;2.40;;
6955;SDS011;50345;51.136;16.886;2022-08-02T08:12:19;6.33;;;3.40;;
6955;SDS011;50345;51.136;16.886;2022-08-02T08:14:45;2.40;;;2.20;;
6955;SDS011;50345;51.136;16.886;2022-08-02T08:17:11;2.90;;;2.70;;
6955;SDS011;50345;51.136;16.886;2022-08-02T08:19:37;2.53;;;2.43;;
6955;SDS011;50345;51.136;16.886;2022-08-02T08:22:02;2.10;;;2.00;;
6955;SDS011;50345;51.136;16.886;2022-08-02T08:24:28;3.73;;;2.50;;
6955;SDS011;50345;51.136;16.886;2022-08-02T08:26:57;2.17;;;1.97;;
6955;SDS011;50345;51.136;16.886;2022-08-02T08:29:23;2.40;;;2.30;;
6955;SDS011;50345;51.136;16.886;2022-08-02T08:31:50;2.77;;;2.57;;
6955;SDS011;50345;51.136;16.886;2022-08-02T08:34:16;2.43;;;2.20;;
6955;SDS011;50345;51.136;16.886;2022-08-02T08:36:42;2.23;;;2.03;;
6955;SDS011;50345;51.136;16.886;2022-08-02T08:39:08;1.90;;;1.80;;
6955;SDS011;50345;51.136;16.886;2022-08-02T08:41:34;2.10;;;1.90;;
6955;SDS011;50345;51.136;16.886;2022-08-02T08:44:01;2.73;;;2.53;;
6955;SDS011;50345;51.136;16.886;2022-08-02T08:46:31;3.60;;;3.10;;
6955;SDS011;50345;51.136;16.886;2022-08-02T08:49:08;3.50;;;2.03;;
6955;SDS011;50345;51.136;16.886;2022-08-02T08:51:42;2.63;;;2.50;;
6955;SDS011;50345;51.136;16.886;2022-08-02T08:54:13;2.27;;;2.07;;
6955;SDS011;50345;51.136;16.886;2022-08-02T08:56:41;2.00;;;1.73;;
6955;SDS011;50345;51.136;16.886;2022-08-02T08:59:07;1.70;;;1.60;;
6955;SDS011;50345;51.136;16.886;2022-08-02T09:01:34;1.87;;;1.77;;
6955;SDS011;50345;51.136;16.886;2022-08-02T09:03:59;2.03;;;1.80;;
6955;SDS011;50345;51.136;16.886;2022-08-02T09:06:25;2.00;;;1.53;;
6955;SDS011;50345;51.136;16.886;2022-08-02T09:08:52;2.10;;;1.90;;
6955;SDS011;50345;51.136;16.886;2022-08-02T09:11:21;2.00;;;1.90;;
6955;SDS011;50345;51.136;16.886;2022-08-02T09:13:55;2.03;;;1.70;;
6955;SDS011;50345;51.136;16.886;2022-08-02T09:19:25;1.83;;;1.73;;
6955;SDS011;50345;51.136;16.886;2022-08-02T09:21:51;1.67;;;1.57;;
6955;SDS011;50345;51.136;16.886;2022-08-02T09:24:21;2.47;;;1.73;;
6955;SDS011;50345;51.136;16.886;2022-08-02T09:26:48;2.00;;;1.73;;
6955;SDS011;50345;51.136;16.886;2022-08-02T09:29:16;1.77;;;1.67;;
6955;SDS011;50345;51.136;16.886;2022-08-02T09:31:42;1.70;;;1.60;;
6955;SDS011;50345;51.136;16.886;2022-08-02T09:34:08;2.07;;;1.97;;
6955;SDS011;50345;51.136;16.886;2022-08-02T09:36:39;1.93;;;1.73;;
6955;SDS011;50345;51.136;16.886;2022-08-02T09:39:05;4.27;;;1.73;;
6955;SDS011;50345;51.136;16.886;2022-08-02T09:41:32;3.10;;;1.90;;
6955;SDS011;50345;51.136;16.886;2022-08-02T09:43:59;1.90;;;1.70;;
6955;SDS011;50345;51.136;16.886;2022-08-02T09:46:27;1.63;;;1.53;;
6955;SDS011;50345;51.136;16.886;2022-08-02T09:48:58;1.87;;;1.63;;
6955;SDS011;50345;51.136;16.886;2022-08-02T09:51:31;1.43;;;1.33;;
6955;SDS011;50345;51.136;16.886;2022-08-02T09:54:10;2.10;;;2.00;;
6955;SDS011;50345;51.136;16.886;2022-08-02T09:56:42;2.10;;;2.00;;
6955;SDS011;50345;51.136;16.886;2022-08-02T09:59:08;1.80;;;1.70;;
6955;SDS011;50345;51.136;16.886;2022-08-02T10:01:35;3.23;;;2.17;;
6955;SDS011;50345;51.136;16.886;2022-08-02T10:04:03;1.70;;;1.60;;
6955;SDS011;50345;51.136;16.886;2022-08-02T10:06:29;1.53;;;1.43;;
6955;SDS011;50345;51.136;16.886;2022-08-02T10:08:56;2.00;;;1.90;;
6955;SDS011;50345;51.136;16.886;2022-08-02T10:11:22;1.73;;;1.63;;
6955;SDS011;50345;51.136;16.886;2022-08-02T10:13:49;1.93;;;1.73;;
6955;SDS011;50345;51.136;16.886;2022-08-02T10:16:19;1.60;;;1.50;;
6955;SDS011;50345;51.136;16.886;2022-08-02T10:18:47;1.40;;;1.30;;
6955;SDS011;50345;51.136;16.886;2022-08-02T10:21:14;2.00;;;1.90;;
6955;SDS011;50345;51.136;16.886;2022-08-02T10:23:41;1.80;;;1.70;;
6955;SDS011;50345;51.136;16.886;2022-08-02T10:26:07;3.63;;;1.60;;
6955;SDS011;50345;51.136;16.886;2022-08-02T10:28:36;1.90;;;1.70;;
6955;SDS011;50345;51.136;16.886;2022-08-02T10:31:03;2.43;;;1.97;;
6955;SDS011;50345;51.136;16.886;2022-08-02T10:33:34;1.67;;;1.57;;
6955;SDS011;50345;51.136;16.886;2022-08-02T10:36:00;2.00;;;1.90;;
6955;SDS011;50345;51.136;16.886;2022-08-02T10:38:27;1.80;;;1.70;;
6955;SDS011;50345;51.136;16.886;2022-08-02T10:40:54;1.73;;;1.60;;
6955;SDS011;50345;51.136;16.886;2022-08-02T10:46:19;3.10;;;1.77;;
6955;SDS011;50345;51.136;16.886;2022-08-02T10:49:01;1.90;;;1.80;;
6955;SDS011;50345;51.136;16.886;2022-08-02T10:54:28;2.10;;;2.00;;
6955;SDS011;50345;51.136;16.886;2022-08-02T10:57:13;1.97;;;1.80;;
6955;SDS011;50345;51.136;16.886;2022-08-02T11:00:13;2.27;;;2.10;;
6955;SDS011;50345;51.136;16.886;2022-08-02T11:02:50;2.53;;;2.13;;
6955;SDS011;50345;51.136;16.886;2022-08-02T11:05:17;1.90;;;1.77;;
6955;SDS011;50345;51.136;16.886;2022-08-02T11:07:44;2.83;;;1.87;;
6955;SDS011;50345;51.136;16.886;2022-08-02T11:12:59;1.60;;;1.50;;
6955;SDS011;50345;51.136;16.886;2022-08-02T11:15:25;1.60;;;1.50;;
6955;SDS011;50345;51.136;16.886;2022-08-02T11:17:53;2.10;;;2.00;;
6955;SDS011;50345;51.136;16.886;2022-08-02T11:20:20;2.60;;;2.07;;
6955;SDS011;50345;51.136;16.886;2022-08-02T11:22:47;2.40;;;1.87;;
6955;SDS011;50345;51.136;16.886;2022-08-02T11:27:49;1.57;;;1.47;;
6955;SDS011;50345;51.136;16.886;2022-08-02T11:30:15;1.97;;;1.87;;
6955;SDS011;50345;51.136;16.886;2022-08-02T11:32:41;2.60;;;1.60;;
6955;SDS011;50345;51.136;16.886;2022-08-02T11:35:07;1.60;;;1.50;;
6955;SDS011;50345;51.136;16.886;2022-08-02T11:37:34;2.60;;;1.67;;
6955;SDS011;50345;51.136;16.886;2022-08-02T11:40:01;2.90;;;2.00;;
6955;SDS011;50345;51.136;16.886;2022-08-02T11:42:31;1.40;;;1.30;;
6955;SDS011;50345;51.136;16.886;2022-08-02T11:44:57;1.53;;;1.43;;
6955;SDS011;50345;51.136;16.886;2022-08-02T11:47:23;2.27;;;1.97;;
6955;SDS011;50345;51.136;16.886;2022-08-02T11:49:50;3.73;;;2.00;;
6955;SDS011;50345;51.136;16.886;2022-08-02T11:52:16;1.80;;;1.70;;
6955;SDS011;50345;51.136;16.886;2022-08-02T11:54:42;1.70;;;1.60;;
6955;SDS011;50345;51.136;16.886;2022-08-02T11:57:18;2.03;;;1.90;;
6955;SDS011;50345;51.136;16.886;2022-08-02T11:59:45;2.00;;;1.90;;
6955;SDS011;50345;51.136;16.886;2022-08-02T12:02:12;2.10;;;2.00;;
6955;SDS011;50345;51.136;16.886;2022-08-02T12:04:38;1.80;;;1.70;;
6955;SDS011;50345;51.136;16.886;2022-08-02T12:07:05;1.80;;;1.70;;
6955;SDS011;50345;51.136;16.886;2022-08-02T12:09:33;2.47;;;2.10;;
6955;SDS011;50345;51.136;16.886;2022-08-02T12:11:59;2.33;;;2.13;;
6955;SDS011;50345;51.136;16.886;2022-08-02T12:14:26;7.30;;;1.80;;
6955;SDS011;50345;51.136;16.886;2022-08-02T12:16:53;2.67;;;2.03;;
6955;SDS011;50345;51.136;16.886;2022-08-02T12:19:38;2.63;;;1.70;;
6955;SDS011;50345;51.136;16.886;2022-08-02T12:22:10;2.10;;;2.00;;
6955;SDS011;50345;51.136;16.886;2022-08-02T12:24:37;6.40;;;1.90;;
6955;SDS011;50345;51.136;16.886;2022-08-02T12:27:03;1.70;;;1.60;;
6955;SDS011;50345;51.136;16.886;2022-08-02T12:29:33;2.73;;;1.83;;
6955;SDS011;50345;51.136;16.886;2022-08-02T12:32:00;1.87;;;1.77;;
6955;SDS011;50345;51.136;16.886;2022-08-02T12:34:26;1.70;;;1.60;;
6955;SDS011;50345;51.136;16.886;2022-08-02T12:37:00;1.60;;;1.50;;
6955;SDS011;50345;51.136;16.886;2022-08-02T12:39:37;1.80;;;1.70;;
6955;SDS011;50345;51.136;16.886;2022-08-02T12:42:04;1.90;;;1.80;;
6955;SDS011;50345;51.136;16.886;2022-08-02T12:44:31;3.87;;;1.80;;
6955;SDS011;50345;51.136;16.886;2022-08-02T12:47:00;2.23;;;2.13;;
6955;SDS011;50345;51.136;16.886;2022-08-02T12:49:27;1.60;;;1.50;;
6955;SDS011;50345;51.136;16.886;2022-08-02T12:51:54;1.70;;;1.60;;
6955;SDS011;50345;51.136;16.886;2022-08-02T12:54:21;1.87;;;1.77;;
6955;SDS011;50345;51.136;16.886;2022-08-02T12:56:48;1.60;;;1.50;;
6955;SDS011;50345;51.136;16.886;2022-08-02T12:59:14;2.30;;;2.10;;
6955;SDS011;50345;51.136;16.886;2022-08-02T13:01:40;1.77;;;1.67;;
6955;SDS011;50345;51.136;16.886;2022-08-02T13:04:06;2.20;;;1.73;;
6955;SDS011;50345;51.136;16.886;2022-08-02T13:06:32;2.00;;;1.87;;
6955;SDS011;50345;51.136;16.886;2022-08-02T13:08:59;1.80;;;1.70;;
6955;SDS011;50345;51.136;16.886;2022-08-02T13:11:25;1.90;;;1.80;;
6955;SDS011;50345;51.136;16.886;2022-08-02T13:13:51;3.07;;;1.60;;
6955;SDS011;50345;51.136;16.886;2022-08-02T13:16:18;2.00;;;1.80;;
6955;SDS011;50345;51.136;16.886;2022-08-02T13:18:43;1.70;;;1.60;;
6955;SDS011;50345;51.136;16.886;2022-08-02T13:21:10;3.10;;;2.80;;
6955;SDS011;50345;51.136;16.886;2022-08-02T13:23:36;3.53;;;2.60;;
6955;SDS011;50345;51.136;16.886;2022-08-02T13:26:03;2.00;;;1.90;;
6955;SDS011;50345;51.136;16.886;2022-08-02T13:28:29;2.43;;;1.93;;
6955;SDS011;50345;51.136;16.886;2022-08-02T13:30:55;1.70;;;1.60;;
6955;SDS011;50345;51.136;16.886;2022-08-02T13:33:21;5.40;;;1.97;;
6955;SDS011;50345;51.136;16.886;2022-08-02T13:35:47;1.70;;;1.60;;
6955;SDS011;50345;51.136;16.886;2022-08-02T13:38:13;2.17;;;1.80;;
6955;SDS011;50345;51.136;16.886;2022-08-02T13:40:39;3.83;;;2.17;;
6955;SDS011;50345;51.136;16.886;2022-08-02T13:43:24;7.17;;;2.40;;
6955;SDS011;50345;51.136;16.886;2022-08-02T13:45:50;4.47;;;2.57;;
6955;SDS011;50345;51.136;16.886;2022-08-02T13:48:16;2.03;;;1.93;;
6955;SDS011;50345;51.136;16.886;2022-08-02T13:50:42;2.23;;;2.13;;
6955;SDS011;50345;51.136;16.886;2022-08-02T13:53:08;3.30;;;2.50;;
6955;SDS011;50345;51.136;16.886;2022-08-02T13:55:34;2.13;;;1.80;;
6955;SDS011;50345;51.136;16.886;2022-08-02T13:58:00;2.43;;;2.23;;
6955;SDS011;50345;51.136;16.886;2022-08-02T14:00:28;1.97;;;1.87;;
6955;SDS011;50345;51.136;16.886;2022-08-02T14:02:55;2.20;;;1.90;;
6955;SDS011;50345;51.136;16.886;2022-08-02T14:05:21;1.83;;;1.73;;
6955;SDS011;50345;51.136;16.886;2022-08-02T14:07:46;1.87;;;1.77;;
6955;SDS011;50345;51.136;16.886;2022-08-02T14:10:12;2.00;;;1.77;;
6955;SDS011;50345;51.136;16.886;2022-08-02T14:12:37;7.03;;;1.87;;
6955;SDS011;50345;51.136;16.886;2022-08-02T14:15:03;2.00;;;1.90;;
6955;SDS011;50345;51.136;16.886;2022-08-02T14:17:29;2.43;;;2.23;;
6955;SDS011;50345;51.136;16.886;2022-08-02T14:19:55;3.33;;;1.93;;
6955;SDS011;50345;51.136;16.886;2022-08-02T14:22:20;2.43;;;1.63;;
6955;SDS011;50345;51.136;16.886;2022-08-02T14:24:46;2.00;;;1.90;;
6955;SDS011;50345;51.136;16.886;2022-08-02T14:27:11;1.80;;;1.67;;
6955;SDS011;50345;51.136;16.886;2022-08-02T14:29:37;1.80;;;1.70;;
6955;SDS011;50345;51.136;16.886;2022-08-02T14:32:03;2.10;;;2.00;;
6955;SDS011;50345;51.136;16.886;2022-08-02T14:34:29;2.23;;;2.13;;
6955;SDS011;50345;51.136;16.886;2022-08-02T14:36:55;2.70;;;1.77;;
6955;SDS011;50345;51.136;16.886;2022-08-02T14:39:21;2.00;;;1.90;;
6955;SDS011;50345;51.136;16.886;2022-08-02T14:41:47;2.13;;;2.03;;
6955;SDS011;50345;51.136;16.886;2022-08-02T14:44:13;2.17;;;2.07;;
6955;SDS011;50345;51.136;16.886;2022-08-02T14:46:39;2.40;;;2.13;;
6955;SDS011;50345;51.136;16.886;2022-08-02T14:49:06;1.70;;;1.60;;
6955;SDS011;50345;51.136;16.886;2022-08-02T14:51:33;2.77;;;2.57;;
6955;SDS011;50345;51.136;16.886;2022-08-02T14:54:00;1.83;;;1.73;;
6955;SDS011;50345;51.136;16.886;2022-08-02T14:56:28;2.80;;;2.00;;
6955;SDS011;50345;51.136;16.886;2022-08-02T14:58:54;1.80;;;1.70;;
6955;SDS011;50345;51.136;16.886;2022-08-02T15:01:20;3.33;;;2.13;;
6955;SDS011;50345;51.136;16.886;2022-08-02T15:03:45;2.23;;;1.90;;
6955;SDS011;50345;51.136;16.886;2022-08-02T15:06:11;2.90;;;2.70;;
6955;SDS011;50345;51.136;16.886;2022-08-02T15:08:37;2.20;;;2.10;;
6955;SDS011;50345;51.136;16.886;2022-08-02T15:11:02;1.80;;;1.50;;
6955;SDS011;50345;51.136;16.886;2022-08-02T15:13:28;2.20;;;2.10;;
6955;SDS011;50345;51.136;16.886;2022-08-02T15:15:53;1.83;;;1.70;;